Meteorología y climatología de Navarra
Datos de la estación - Meteo Navarra

Estación de Sartaguda GN

Altitud 310 m.


Datos desde el 14/08/2019 hasta el 15/08/2019 en horario solar
Los datos son PROVISIONALES

Anterior Página 1 de 1 Siguiente Descargar: Formato para Excel 2000 o superior   Formato csv   Formato para OpenOffice Calc
Fecha Temperatura Humedad relativa Radiación global Insolación Precipitación Vel. viento 10 m Vel. viento 10 m Dir. viento 10 m
ºC % W/m² s l/m² m/s km/h º
14/08/2019 0:00 14.2 65 0.0 0 0.0 0.6 2.2 15
14/08/2019 0:10 13.7 69 0.0 0 0.0 0.6 2.3 336
14/08/2019 0:20 13.3 72 0.0 0 0.0 0.1 0.3 245
14/08/2019 0:30 12.7 73 0.0 0 0.0 0.5 1.7 183
14/08/2019 0:40 12.6 73 0.0 0 0.0 0.3 1.2 240
14/08/2019 0:50 12.6 76 0.0 0 0.0 0.9 3.2 256
14/08/2019 1:00 12.7 75 0.0 0 0.0 1.1 4.0 304
14/08/2019 1:10 12.9 74 0.0 0 0.0 1.7 6.0 323
14/08/2019 1:20 13.3 70 0.0 0 0.0 1.7 6.0 321
14/08/2019 1:30 13.1 72 0.0 0 0.0 1.4 5.0 330
14/08/2019 1:40 13.1 73 0.0 0 0.0 1.1 4.0 307
14/08/2019 1:50 13.1 74 0.0 0 0.0 2.0 7.2 332
14/08/2019 2:00 13.1 74 0.0 0 0.0 1.5 5.2 329
14/08/2019 2:10 13.1 75 0.0 0 0.0 1.8 6.5 331
14/08/2019 2:20 13.0 76 0.0 0 0.0 1.8 6.6 329
14/08/2019 2:30 13.0 76 0.0 0 0.0 2.0 7.1 319
14/08/2019 2:40 13.1 76 0.0 0 0.0 2.1 7.7 316
14/08/2019 2:50 13.3 75 0.0 0 0.0 1.3 4.6 303
14/08/2019 3:00 13.4 74 0.0 0 0.0 1.5 5.5 317
14/08/2019 3:10 13.4 74 0.0 0 0.0 1.2 4.2 286
14/08/2019 3:20 13.1 76 0.0 0 0.0 0.7 2.6 263
14/08/2019 3:30 12.8 77 0.0 0 0.0 0.5 1.9 307
14/08/2019 3:40 12.7 78 0.0 0 0.0 0.7 2.4 324
14/08/2019 3:50 12.5 80 0.0 0 0.0 0.8 2.7 289
14/08/2019 4:00 12.1 82 0.0 0 0.0 1.1 3.9 265
14/08/2019 4:10 12.5 81 0.0 0 0.0 1.6 5.8 300
14/08/2019 4:20 12.8 79 0.0 0 0.0 1.2 4.2 274
14/08/2019 4:30 13.0 78 0.0 0 0.0 0.8 2.8 282
14/08/2019 4:40 13.0 78 0.0 0 0.0 0.7 2.7 288
14/08/2019 4:50 12.8 79 0.0 0 0.0 1.4 5.0 353
14/08/2019 5:00 12.6 81 0.0 0 0.0 1.9 6.8 348
14/08/2019 5:10 12.5 82 0.0 0 0.0 1.5 5.5 5
14/08/2019 5:20 12.5 83 0.0 0 0.0 1.5 5.5 351
14/08/2019 5:30 12.7 83 12.5 0 0.0 1.4 5.1 278
14/08/2019 5:40 12.7 83 33.9 436 0.0 1.8 6.6 266
14/08/2019 5:50 12.9 81 48.0 444 0.0 1.0 3.5 218
14/08/2019 6:00 13.3 80 76.1 600 0.0 0.8 2.8 201
14/08/2019 6:10 13.7 78 101.8 600 0.0 0.6 2.1 227
14/08/2019 6:20 14.1 77 130.3 600 0.0 1.0 3.7 287
14/08/2019 6:30 14.6 77 159.2 600 0.0 1.0 3.5 27
14/08/2019 6:40 15.1 75 189.0 600 0.0 0.9 3.3 356
14/08/2019 6:50 15.4 73 221.3 600 0.0 1.3 4.8 337
14/08/2019 7:00 15.6 72 253.7 600 0.0 1.7 6.1 340
14/08/2019 7:10 16.1 71 285.9 600 0.0 1.4 5.1 347
14/08/2019 7:20 16.6 69 317.8 600 0.0 1.7 6.2 346
14/08/2019 7:30 17.0 66 350.1 600 0.0 2.4 8.7 340
14/08/2019 7:40 17.3 63 382.5 600 0.0 2.7 9.7 342
14/08/2019 7:50 17.5 64 413.9 600 0.0 3.2 11.6 344
14/08/2019 8:00 17.9 62 444.7 600 0.0 2.7 9.7 335
14/08/2019 8:10 18.4 60 475.8 600 0.0 2.5 9.0 324
14/08/2019 8:20 19.0 59 506.9 600 0.0 1.9 6.8 323
14/08/2019 8:30 19.7 58 535.2 600 0.0 1.5 5.2 335
14/08/2019 8:40 20.2 56 565.3 600 0.0 2.0 7.2 355
14/08/2019 8:50 20.7 55 594.2 600 0.0 2.4 8.8 1
14/08/2019 9:00 21.2 54 622.0 600 0.0 2.4 8.6 3
14/08/2019 9:10 21.9 51 649.2 600 0.0 2.1 7.7 0
14/08/2019 9:20 22.4 50 674.6 600 0.0 2.0 7.1 4
14/08/2019 9:30 23.0 48 699.9 600 0.0 2.3 8.4 358
14/08/2019 9:40 23.1 46 724.6 600 0.0 2.7 9.8 357
14/08/2019 9:50 23.6 44 746.9 600 0.0 2.2 7.9 359
14/08/2019 10:00 24.2 42 767.3 600 0.0 2.0 7.1 20
14/08/2019 10:10 24.7 40 789.7 600 0.0 2.5 9.1 357
14/08/2019 10:20 25.2 36 809.0 600 0.0 2.5 9.1 348
14/08/2019 10:30 25.6 34 827.0 600 0.0 2.2 7.7 17
14/08/2019 10:40 26.0 34 844.0 600 0.0 2.0 7.1 1
14/08/2019 10:50 26.5 31 866.0 600 0.0 1.9 6.7 354
14/08/2019 11:00 27.0 30 833.0 600 0.0 2.0 7.1 20
14/08/2019 11:10 27.4 28 903.0 600 0.0 2.1 7.6 348
14/08/2019 11:20 27.9 28 937.0 600 0.0 2.8 10.2 325
14/08/2019 11:30 28.2 27 948.0 600 0.0 3.8 13.8 311
14/08/2019 11:40 28.4 26 944.0 600 0.0 4.2 15.1 323
14/08/2019 11:50 28.6 26 943.0 600 0.0 3.3 12.0 319
14/08/2019 12:00 28.8 27 926.0 600 0.0 3.9 14.0 322
14/08/2019 12:10 29.1 26 925.0 600 0.0 3.4 12.4 319
14/08/2019 12:20 29.6 26 926.0 600 0.0 3.3 12.0 301
14/08/2019 12:30 29.8 25 925.0 600 0.0 3.8 13.7 293
14/08/2019 12:40 30.0 23 923.0 600 0.0 4.5 16.3 303
14/08/2019 12:50 30.2 24 916.0 600 0.0 3.4 12.4 304
14/08/2019 13:00 30.4 25 911.0 600 0.0 3.3 12.0 292
14/08/2019 13:10 30.8 25 903.0 600 0.0 3.4 12.1 300
14/08/2019 13:20 30.9 24 894.0 600 0.0 3.6 12.9 320
14/08/2019 13:30 31.2 24 883.0 600 0.0 2.9 10.3 304
14/08/2019 13:40 31.3 24 870.0 600 0.0 3.4 12.3 305
14/08/2019 13:50 31.3 24 856.0 600 0.0 4.3 15.4 336
14/08/2019 14:00 31.7 24 839.0 600 0.0 3.1 11.1 340
14/08/2019 14:10 31.7 24 823.0 600 0.0 3.5 12.7 341
14/08/2019 14:20 31.9 24 805.0 600 0.0 3.9 13.9 352
14/08/2019 14:30 32.0 24 784.9 600 0.0 3.8 13.8 345
14/08/2019 14:40 32.2 25 763.9 600 0.0 3.4 12.3 341
14/08/2019 14:50 32.2 25 740.4 600 0.0 4.0 14.5 343
14/08/2019 15:00 32.3 25 715.4 600 0.0 3.9 14.0 344
14/08/2019 15:10 32.2 25 691.9 600 0.0 3.4 12.3 349
14/08/2019 15:20 32.4 25 663.9 600 0.0 3.5 12.6 2
14/08/2019 15:30 32.4 25 640.0 600 0.0 3.3 11.8 355
14/08/2019 15:40 32.4 25 613.9 600 0.0 3.5 12.6 337
14/08/2019 15:50 32.4 26 582.1 600 0.0 3.6 12.8 348
14/08/2019 16:00 32.3 27 553.6 600 0.0 5.0 18.1 358
14/08/2019 16:10 32.0 27 520.5 600 0.0 3.6 13.1 5
14/08/2019 16:20 31.9 29 490.1 600 0.0 4.5 16.0 29
14/08/2019 16:30 31.3 29 459.0 600 0.0 4.7 17.0 4
14/08/2019 16:40 31.2 30 428.3 600 0.0 5.1 18.3 360
14/08/2019 16:50 30.7 30 394.7 600 0.0 5.7 20.7 9
14/08/2019 17:00 30.3 32 361.0 600 0.0 4.3 15.5 18
14/08/2019 17:10 30.0 34 334.4 600 0.0 4.3 15.4 26
14/08/2019 17:20 29.6 34 303.9 600 0.0 4.8 17.2 25
14/08/2019 17:30 29.4 35 265.7 600 0.0 5.1 18.4 30
14/08/2019 17:40 28.9 36 237.2 600 0.0 5.6 20.2 37
14/08/2019 17:50 28.5 37 211.5 600 0.0 5.5 19.8 30
14/08/2019 18:00 28.2 38 178.0 600 0.0 4.9 17.8 27
14/08/2019 18:10 27.9 38 141.7 600 0.0 4.2 15.0 23
14/08/2019 18:20 27.6 39 110.4 600 0.0 4.5 16.3 11
14/08/2019 18:30 27.1 39 84.9 600 0.0 4.6 16.7 19
14/08/2019 18:40 26.7 40 62.6 600 0.0 4.2 15.0 17
14/08/2019 18:50 26.3 42 41.9 600 0.0 3.8 13.6 26
14/08/2019 19:00 25.9 43 22.3 62 0.0 3.0 10.7 22
14/08/2019 19:10 25.6 45 1.5 0 0.0 3.4 12.4 20
14/08/2019 19:20 25.3 46 0.0 0 0.0 4.0 14.4 12
14/08/2019 19:30 25.1 49 0.0 0 0.0 4.0 14.3 13
14/08/2019 19:40 24.8 50 0.0 0 0.0 3.2 11.3 27
14/08/2019 19:50 24.4 49 0.0 0 0.0 2.1 7.5 62
14/08/2019 20:00 23.8 49 0.0 0 0.0 1.2 4.4 42
14/08/2019 20:10 23.4 51 0.0 0 0.0 1.5 5.5 47
14/08/2019 20:20 22.9 52 0.0 0 0.0 1.4 4.9 56
14/08/2019 20:30 22.5 53 0.0 0 0.0 1.2 4.3 69
14/08/2019 20:40 22.2 55 0.0 0 0.0 1.6 5.9 33
14/08/2019 20:50 22.2 57 0.0 0 0.0 2.7 9.7 21
14/08/2019 21:00 22.3 57 0.0 0 0.0 2.4 8.7 22
14/08/2019 21:10 22.1 58 0.0 0 0.0 2.8 9.9 15
14/08/2019 21:20 22.0 60 0.0 0 0.0 3.0 10.8 353
14/08/2019 21:30 21.8 61 0.0 0 0.0 2.0 7.3 344
14/08/2019 21:40 21.5 62 0.0 0 0.0 1.7 6.1 344
14/08/2019 21:50 21.4 63 0.0 0 0.0 1.7 6.1 344
14/08/2019 22:00 21.1 64 0.0 0 0.0 1.4 5.1 341
14/08/2019 22:10 21.0 66 0.0 0 0.0 1.7 6.2 330
14/08/2019 22:20 20.6 67 0.0 0 0.0 1.4 5.0 332
14/08/2019 22:30 20.6 68 0.0 0 0.0 1.3 4.7 334
14/08/2019 22:40 20.3 69 0.0 0 0.0 1.7 6.1 336
14/08/2019 22:50 20.4 69 0.0 0 0.0 1.7 5.9 329
14/08/2019 23:00 20.3 70 0.0 0 0.0 1.5 5.5 327
14/08/2019 23:10 20.2 71 0.0 0 0.0 1.5 5.3 286
14/08/2019 23:20 20.0 70 0.0 0 0.0 0.8 2.7 247
14/08/2019 23:30 19.3 73 0.0 0 0.0 0.9 3.1 195
14/08/2019 23:40 19.2 72 0.0 0 0.0 0.7 2.5 283
14/08/2019 23:50 19.0 75 0.0 0 0.0 0.6 2.2 276
Anterior Página 1 de 1 Siguiente

NOTA: Tipo de datos según el color:
   - Valores diarios o 10 minutos correctos
   - Valores diarios calculados a partir de un número de datos 10 minutos menor que 144 y mayor que 120, o de un número de datos semihorarios menor que 48 y mayor que 40 (caso de las estaciones de Riegos de Navarra y del MARM)
   - Valores diez minutos estimados


Contacto        Enlaces        Aviso legal